sensor_id;sensor_type;location;lat;lon;timestamp;P1;durP1;ratioP1;P2;durP2;ratioP2
42196;SDS011;27866;48.146;17.098;2022-12-29T00:04:00;16.65;;;9.02;;
42196;SDS011;27866;48.146;17.098;2022-12-29T00:08:11;17.33;;;9.85;;
42196;SDS011;27866;48.146;17.098;2022-12-29T00:12:22;16.30;;;8.52;;
42196;SDS011;27866;48.146;17.098;2022-12-29T00:16:34;16.15;;;9.27;;
42196;SDS011;27866;48.146;17.098;2022-12-29T00:20:46;19.05;;;9.93;;
42196;SDS011;27866;48.146;17.098;2022-12-29T00:25:16;19.42;;;9.65;;
42196;SDS011;27866;48.146;17.098;2022-12-29T00:29:46;19.73;;;10.40;;
42196;SDS011;27866;48.146;17.098;2022-12-29T00:34:17;18.38;;;9.15;;
42196;SDS011;27866;48.146;17.098;2022-12-29T00:38:57;17.98;;;9.48;;
42196;SDS011;27866;48.146;17.098;2022-12-29T00:43:36;18.70;;;11.07;;
42196;SDS011;27866;48.146;17.098;2022-12-29T00:48:06;18.60;;;9.82;;
42196;SDS011;27866;48.146;17.098;2022-12-29T00:52:17;26.02;;;11.95;;
42196;SDS011;27866;48.146;17.098;2022-12-29T00:56:29;20.70;;;11.02;;
42196;SDS011;27866;48.146;17.098;2022-12-29T01:00:40;24.05;;;11.02;;
42196;SDS011;27866;48.146;17.098;2022-12-29T01:04:51;22.75;;;11.18;;
42196;SDS011;27866;48.146;17.098;2022-12-29T01:09:03;18.13;;;10.50;;
42196;SDS011;27866;48.146;17.098;2022-12-29T01:13:34;20.05;;;10.25;;
42196;SDS011;27866;48.146;17.098;2022-12-29T01:17:46;20.00;;;10.07;;
42196;SDS011;27866;48.146;17.098;2022-12-29T01:21:57;18.30;;;9.93;;
42196;SDS011;27866;48.146;17.098;2022-12-29T01:26:09;18.02;;;10.10;;
42196;SDS011;27866;48.146;17.098;2022-12-29T01:30:25;16.92;;;9.65;;
42196;SDS011;27866;48.146;17.098;2022-12-29T01:34:37;17.38;;;9.68;;
42196;SDS011;27866;48.146;17.098;2022-12-29T01:38:48;19.67;;;9.80;;
42196;SDS011;27866;48.146;17.098;2022-12-29T01:42:59;21.70;;;9.90;;
42196;SDS011;27866;48.146;17.098;2022-12-29T01:47:11;20.55;;;10.25;;
42196;SDS011;27866;48.146;17.098;2022-12-29T01:51:23;21.88;;;9.77;;
42196;SDS011;27866;48.146;17.098;2022-12-29T01:55:38;21.50;;;10.73;;
42196;SDS011;27866;48.146;17.098;2022-12-29T02:00:07;22.83;;;11.30;;
42196;SDS011;27866;48.146;17.098;2022-12-29T02:04:24;22.98;;;12.02;;
42196;SDS011;27866;48.146;17.098;2022-12-29T02:08:40;22.88;;;10.85;;
42196;SDS011;27866;48.146;17.098;2022-12-29T02:12:53;22.20;;;11.60;;
42196;SDS011;27866;48.146;17.098;2022-12-29T02:17:27;24.35;;;11.85;;
42196;SDS011;27866;48.146;17.098;2022-12-29T02:31:40;21.55;;;11.30;;
42196;SDS011;27866;48.146;17.098;2022-12-29T02:40:30;23.70;;;11.90;;
42196;SDS011;27866;48.146;17.098;2022-12-29T02:45:05;20.05;;;11.95;;
42196;SDS011;27866;48.146;17.098;2022-12-29T02:50:08;27.30;;;11.90;;
42196;SDS011;27866;48.146;17.098;2022-12-29T02:54:26;21.33;;;10.48;;
42196;SDS011;27866;48.146;17.098;2022-12-29T02:58:53;18.08;;;10.05;;
42196;SDS011;27866;48.146;17.098;2022-12-29T03:03:08;19.50;;;10.52;;
42196;SDS011;27866;48.146;17.098;2022-12-29T03:07:55;19.20;;;11.18;;
42196;SDS011;27866;48.146;17.098;2022-12-29T03:12:30;22.48;;;11.07;;
42196;SDS011;27866;48.146;17.098;2022-12-29T03:17:35;20.17;;;10.18;;
42196;SDS011;27866;48.146;17.098;2022-12-29T03:22:31;22.13;;;10.68;;
42196;SDS011;27866;48.146;17.098;2022-12-29T03:26:54;20.47;;;11.20;;
42196;SDS011;27866;48.146;17.098;2022-12-29T03:31:13;21.70;;;11.57;;
42196;SDS011;27866;48.146;17.098;2022-12-29T03:35:27;23.90;;;12.02;;
42196;SDS011;27866;48.146;17.098;2022-12-29T03:39:44;26.05;;;12.20;;
42196;SDS011;27866;48.146;17.098;2022-12-29T03:43:56;19.02;;;10.82;;
42196;SDS011;27866;48.146;17.098;2022-12-29T03:48:07;25.00;;;11.85;;
42196;SDS011;27866;48.146;17.098;2022-12-29T03:52:45;25.05;;;11.38;;
42196;SDS011;27866;48.146;17.098;2022-12-29T03:56:56;21.02;;;11.13;;
42196;SDS011;27866;48.146;17.098;2022-12-29T04:01:19;23.02;;;10.45;;
42196;SDS011;27866;48.146;17.098;2022-12-29T04:05:30;22.58;;;11.70;;
42196;SDS011;27866;48.146;17.098;2022-12-29T04:09:41;25.60;;;11.27;;
42196;SDS011;27866;48.146;17.098;2022-12-29T04:13:57;22.85;;;12.50;;
42196;SDS011;27866;48.146;17.098;2022-12-29T04:18:10;21.00;;;11.10;;
42196;SDS011;27866;48.146;17.098;2022-12-29T04:22:22;24.13;;;11.60;;
42196;SDS011;27866;48.146;17.098;2022-12-29T04:26:33;22.30;;;11.45;;
42196;SDS011;27866;48.146;17.098;2022-12-29T04:31:11;24.10;;;11.95;;
42196;SDS011;27866;48.146;17.098;2022-12-29T04:35:25;22.67;;;13.02;;
42196;SDS011;27866;48.146;17.098;2022-12-29T04:39:36;23.67;;;11.10;;
42196;SDS011;27866;48.146;17.098;2022-12-29T04:43:48;23.95;;;11.68;;
42196;SDS011;27866;48.146;17.098;2022-12-29T04:48:18;23.10;;;11.77;;
42196;SDS011;27866;48.146;17.098;2022-12-29T04:52:51;26.10;;;12.45;;
42196;SDS011;27866;48.146;17.098;2022-12-29T04:57:03;24.80;;;12.27;;
42196;SDS011;27866;48.146;17.098;2022-12-29T05:01:14;26.30;;;13.00;;
42196;SDS011;27866;48.146;17.098;2022-12-29T05:05:25;26.33;;;13.23;;
42196;SDS011;27866;48.146;17.098;2022-12-29T05:09:37;23.02;;;12.85;;
42196;SDS011;27866;48.146;17.098;2022-12-29T05:13:49;22.90;;;12.95;;
42196;SDS011;27866;48.146;17.098;2022-12-29T05:18:01;21.80;;;12.20;;
42196;SDS011;27866;48.146;17.098;2022-12-29T05:22:13;21.20;;;12.48;;
42196;SDS011;27866;48.146;17.098;2022-12-29T05:26:25;28.38;;;12.93;;
42196;SDS011;27866;48.146;17.098;2022-12-29T05:30:54;24.70;;;12.85;;
42196;SDS011;27866;48.146;17.098;2022-12-29T05:35:06;26.48;;;13.82;;
42196;SDS011;27866;48.146;17.098;2022-12-29T05:39:18;28.52;;;13.60;;
42196;SDS011;27866;48.146;17.098;2022-12-29T05:43:34;26.10;;;13.30;;
42196;SDS011;27866;48.146;17.098;2022-12-29T05:48:06;25.55;;;13.55;;
42196;SDS011;27866;48.146;17.098;2022-12-29T05:52:33;28.25;;;13.25;;
42196;SDS011;27866;48.146;17.098;2022-12-29T05:56:45;22.55;;;13.05;;
42196;SDS011;27866;48.146;17.098;2022-12-29T06:00:56;25.25;;;14.02;;
42196;SDS011;27866;48.146;17.098;2022-12-29T06:05:09;26.30;;;13.07;;
42196;SDS011;27866;48.146;17.098;2022-12-29T06:09:22;26.23;;;13.88;;
42196;SDS011;27866;48.146;17.098;2022-12-29T06:13:34;27.15;;;12.90;;
42196;SDS011;27866;48.146;17.098;2022-12-29T06:17:46;32.45;;;14.80;;
42196;SDS011;27866;48.146;17.098;2022-12-29T06:21:57;23.20;;;13.10;;
42196;SDS011;27866;48.146;17.098;2022-12-29T06:26:08;24.70;;;13.20;;
42196;SDS011;27866;48.146;17.098;2022-12-29T06:30:19;26.48;;;12.80;;
42196;SDS011;27866;48.146;17.098;2022-12-29T06:34:31;27.45;;;13.07;;
42196;SDS011;27866;48.146;17.098;2022-12-29T06:38:43;25.48;;;12.73;;
42196;SDS011;27866;48.146;17.098;2022-12-29T06:42:54;23.85;;;12.07;;
42196;SDS011;27866;48.146;17.098;2022-12-29T06:47:41;22.83;;;13.13;;
42196;SDS011;27866;48.146;17.098;2022-12-29T06:51:52;23.70;;;12.85;;
42196;SDS011;27866;48.146;17.098;2022-12-29T06:56:03;23.20;;;12.57;;
42196;SDS011;27866;48.146;17.098;2022-12-29T07:00:15;25.33;;;13.20;;
42196;SDS011;27866;48.146;17.098;2022-12-29T07:04:28;24.98;;;13.13;;
42196;SDS011;27866;48.146;17.098;2022-12-29T07:08:39;26.23;;;13.23;;
42196;SDS011;27866;48.146;17.098;2022-12-29T07:12:50;21.75;;;12.23;;
42196;SDS011;27866;48.146;17.098;2022-12-29T07:17:02;23.80;;;13.95;;
42196;SDS011;27866;48.146;17.098;2022-12-29T07:21:17;23.17;;;12.63;;
42196;SDS011;27866;48.146;17.098;2022-12-29T07:25:29;26.92;;;13.52;;
42196;SDS011;27866;48.146;17.098;2022-12-29T07:29:40;21.70;;;12.40;;
42196;SDS011;27866;48.146;17.098;2022-12-29T07:33:51;22.58;;;12.90;;
42196;SDS011;27866;48.146;17.098;2022-12-29T07:38:02;19.25;;;12.38;;
42196;SDS011;27866;48.146;17.098;2022-12-29T07:42:13;23.50;;;13.05;;
42196;SDS011;27866;48.146;17.098;2022-12-29T07:50:39;26.58;;;12.68;;
42196;SDS011;27866;48.146;17.098;2022-12-29T07:54:50;20.17;;;12.57;;
42196;SDS011;27866;48.146;17.098;2022-12-29T07:59:01;21.20;;;11.88;;
42196;SDS011;27866;48.146;17.098;2022-12-29T08:03:13;25.23;;;12.77;;
42196;SDS011;27866;48.146;17.098;2022-12-29T08:07:24;22.77;;;12.63;;
42196;SDS011;27866;48.146;17.098;2022-12-29T08:11:35;25.70;;;12.48;;
42196;SDS011;27866;48.146;17.098;2022-12-29T08:15:47;20.45;;;12.38;;
42196;SDS011;27866;48.146;17.098;2022-12-29T08:19:58;21.85;;;12.02;;
42196;SDS011;27866;48.146;17.098;2022-12-29T08:24:09;21.48;;;12.43;;
42196;SDS011;27866;48.146;17.098;2022-12-29T08:28:20;23.15;;;12.43;;
42196;SDS011;27866;48.146;17.098;2022-12-29T08:32:32;22.73;;;12.52;;
42196;SDS011;27866;48.146;17.098;2022-12-29T08:36:44;20.55;;;12.23;;
42196;SDS011;27866;48.146;17.098;2022-12-29T08:40:56;22.00;;;12.85;;
42196;SDS011;27866;48.146;17.098;2022-12-29T08:45:08;22.27;;;12.90;;
42196;SDS011;27866;48.146;17.098;2022-12-29T08:49:20;26.92;;;13.18;;
42196;SDS011;27866;48.146;17.098;2022-12-29T08:53:31;26.02;;;12.45;;
42196;SDS011;27866;48.146;17.098;2022-12-29T08:57:42;23.55;;;12.77;;
42196;SDS011;27866;48.146;17.098;2022-12-29T09:01:59;27.73;;;13.68;;
42196;SDS011;27866;48.146;17.098;2022-12-29T09:06:12;23.25;;;12.90;;
42196;SDS011;27866;48.146;17.098;2022-12-29T09:10:25;20.65;;;12.18;;
42196;SDS011;27866;48.146;17.098;2022-12-29T09:14:36;25.70;;;12.43;;
42196;SDS011;27866;48.146;17.098;2022-12-29T09:18:47;21.80;;;11.98;;
42196;SDS011;27866;48.146;17.098;2022-12-29T09:22:59;21.88;;;12.45;;
42196;SDS011;27866;48.146;17.098;2022-12-29T09:27:10;23.15;;;12.98;;
42196;SDS011;27866;48.146;17.098;2022-12-29T09:31:21;20.98;;;11.63;;
42196;SDS011;27866;48.146;17.098;2022-12-29T09:35:33;22.83;;;13.98;;
42196;SDS011;27866;48.146;17.098;2022-12-29T09:39:44;23.77;;;12.93;;
42196;SDS011;27866;48.146;17.098;2022-12-29T09:53:52;24.98;;;13.35;;
42196;SDS011;27866;48.146;17.098;2022-12-29T09:58:15;27.48;;;13.38;;
42196;SDS011;27866;48.146;17.098;2022-12-29T10:02:59;23.80;;;12.77;;
42196;SDS011;27866;48.146;17.098;2022-12-29T10:07:26;24.13;;;13.43;;
42196;SDS011;27866;48.146;17.098;2022-12-29T10:16:42;22.65;;;13.55;;
42196;SDS011;27866;48.146;17.098;2022-12-29T10:26:27;23.33;;;13.38;;
42196;SDS011;27866;48.146;17.098;2022-12-29T10:30:43;22.65;;;14.35;;
42196;SDS011;27866;48.146;17.098;2022-12-29T10:35:00;24.88;;;13.88;;
42196;SDS011;27866;48.146;17.098;2022-12-29T10:39:23;23.15;;;13.30;;
42196;SDS011;27866;48.146;17.098;2022-12-29T10:43:45;23.13;;;13.35;;
42196;SDS011;27866;48.146;17.098;2022-12-29T10:48:03;25.13;;;14.23;;
42196;SDS011;27866;48.146;17.098;2022-12-29T10:52:31;22.30;;;14.02;;
42196;SDS011;27866;48.146;17.098;2022-12-29T10:56:54;21.87;;;13.27;;
42196;SDS011;27866;48.146;17.098;2022-12-29T11:01:13;25.25;;;12.98;;
42196;SDS011;27866;48.146;17.098;2022-12-29T11:09:48;22.83;;;12.88;;
42196;SDS011;27866;48.146;17.098;2022-12-29T11:18:38;27.10;;;14.40;;
42196;SDS011;27866;48.146;17.098;2022-12-29T11:22:52;25.48;;;14.32;;
42196;SDS011;27866;48.146;17.098;2022-12-29T11:27:37;23.15;;;13.45;;
42196;SDS011;27866;48.146;17.098;2022-12-29T11:31:47;22.67;;;13.50;;
42196;SDS011;27866;48.146;17.098;2022-12-29T11:36:04;23.27;;;14.02;;
42196;SDS011;27866;48.146;17.098;2022-12-29T11:40:25;25.08;;;14.20;;
42196;SDS011;27866;48.146;17.098;2022-12-29T11:44:37;24.50;;;14.45;;
42196;SDS011;27866;48.146;17.098;2022-12-29T11:48:53;27.88;;;14.95;;
42196;SDS011;27866;48.146;17.098;2022-12-29T11:53:22;23.92;;;14.30;;
42196;SDS011;27866;48.146;17.098;2022-12-29T11:57:44;24.00;;;13.48;;
42196;SDS011;27866;48.146;17.098;2022-12-29T12:01:57;24.63;;;14.00;;
42196;SDS011;27866;48.146;17.098;2022-12-29T12:06:12;24.38;;;13.98;;
42196;SDS011;27866;48.146;17.098;2022-12-29T12:10:31;22.10;;;13.05;;
42196;SDS011;27866;48.146;17.098;2022-12-29T12:14:56;23.92;;;13.93;;
42196;SDS011;27866;48.146;17.098;2022-12-29T12:33:22;26.23;;;15.27;;
42196;SDS011;27866;48.146;17.098;2022-12-29T12:37:55;27.58;;;15.10;;
42196;SDS011;27866;48.146;17.098;2022-12-29T12:47:37;27.55;;;15.45;;
42196;SDS011;27866;48.146;17.098;2022-12-29T13:10:01;29.27;;;14.90;;
42196;SDS011;27866;48.146;17.098;2022-12-29T13:19:14;28.33;;;15.13;;
42196;SDS011;27866;48.146;17.098;2022-12-29T13:28:03;27.17;;;15.20;;
42196;SDS011;27866;48.146;17.098;2022-12-29T13:32:26;24.65;;;14.93;;
42196;SDS011;27866;48.146;17.098;2022-12-29T13:37:07;30.70;;;16.73;;
42196;SDS011;27866;48.146;17.098;2022-12-29T13:45:45;27.30;;;16.67;;
42196;SDS011;27866;48.146;17.098;2022-12-29T13:50:21;30.48;;;16.95;;
42196;SDS011;27866;48.146;17.098;2022-12-29T13:54:41;35.88;;;17.35;;
42196;SDS011;27866;48.146;17.098;2022-12-29T13:59:20;28.83;;;15.20;;
42196;SDS011;27866;48.146;17.098;2022-12-29T14:04:25;28.20;;;17.10;;
42196;SDS011;27866;48.146;17.098;2022-12-29T14:08:39;34.40;;;17.55;;
42196;SDS011;27866;48.146;17.098;2022-12-29T14:12:50;31.45;;;17.60;;
42196;SDS011;27866;48.146;17.098;2022-12-29T14:17:10;31.33;;;17.27;;
42196;SDS011;27866;48.146;17.098;2022-12-29T14:21:23;28.85;;;18.02;;
42196;SDS011;27866;48.146;17.098;2022-12-29T14:30:31;32.72;;;18.60;;
42196;SDS011;27866;48.146;17.098;2022-12-29T14:40:19;38.42;;;22.02;;
42196;SDS011;27866;48.146;17.098;2022-12-29T14:44:46;41.50;;;23.35;;
42196;SDS011;27866;48.146;17.098;2022-12-29T14:49:15;40.30;;;22.30;;
42196;SDS011;27866;48.146;17.098;2022-12-29T14:53:41;41.50;;;21.83;;
42196;SDS011;27866;48.146;17.098;2022-12-29T14:57:59;38.97;;;21.52;;
42196;SDS011;27866;48.146;17.098;2022-12-29T15:02:17;38.40;;;21.50;;
42196;SDS011;27866;48.146;17.098;2022-12-29T15:06:35;41.28;;;22.17;;
42196;SDS011;27866;48.146;17.098;2022-12-29T15:15:37;40.35;;;21.85;;
42196;SDS011;27866;48.146;17.098;2022-12-29T15:19:49;40.22;;;23.75;;
42196;SDS011;27866;48.146;17.098;2022-12-29T15:24:00;45.25;;;24.98;;
42196;SDS011;27866;48.146;17.098;2022-12-29T15:28:13;47.78;;;25.30;;
42196;SDS011;27866;48.146;17.098;2022-12-29T15:32:26;44.90;;;25.30;;
42196;SDS011;27866;48.146;17.098;2022-12-29T15:36:40;45.97;;;26.27;;
42196;SDS011;27866;48.146;17.098;2022-12-29T15:40:53;45.33;;;26.00;;
42196;SDS011;27866;48.146;17.098;2022-12-29T15:45:11;40.75;;;24.80;;
42196;SDS011;27866;48.146;17.098;2022-12-29T15:49:24;49.03;;;24.92;;
42196;SDS011;27866;48.146;17.098;2022-12-29T15:53:35;43.75;;;25.23;;
42196;SDS011;27866;48.146;17.098;2022-12-29T15:57:46;42.67;;;23.35;;
42196;SDS011;27866;48.146;17.098;2022-12-29T16:01:58;41.60;;;23.08;;
42196;SDS011;27866;48.146;17.098;2022-12-29T16:06:29;39.08;;;22.20;;
42196;SDS011;27866;48.146;17.098;2022-12-29T16:10:49;45.13;;;23.13;;
42196;SDS011;27866;48.146;17.098;2022-12-29T16:15:02;43.03;;;23.33;;
42196;SDS011;27866;48.146;17.098;2022-12-29T16:19:21;45.72;;;22.92;;
42196;SDS011;27866;48.146;17.098;2022-12-29T16:23:36;46.17;;;23.98;;
42196;SDS011;27866;48.146;17.098;2022-12-29T16:27:48;39.28;;;23.17;;
42196;SDS011;27866;48.146;17.098;2022-12-29T16:32:01;42.35;;;24.35;;
42196;SDS011;27866;48.146;17.098;2022-12-29T16:40:55;42.42;;;25.15;;
42196;SDS011;27866;48.146;17.098;2022-12-29T16:49:31;42.63;;;24.05;;
42196;SDS011;27866;48.146;17.098;2022-12-29T16:53:49;38.33;;;23.05;;
42196;SDS011;27866;48.146;17.098;2022-12-29T16:58:04;41.50;;;23.38;;
42196;SDS011;27866;48.146;17.098;2022-12-29T17:02:16;44.40;;;25.33;;
42196;SDS011;27866;48.146;17.098;2022-12-29T17:06:31;42.38;;;25.02;;
42196;SDS011;27866;48.146;17.098;2022-12-29T17:10:42;44.10;;;23.95;;
42196;SDS011;27866;48.146;17.098;2022-12-29T17:15:26;46.15;;;24.70;;
42196;SDS011;27866;48.146;17.098;2022-12-29T17:19:44;47.83;;;25.70;;
42196;SDS011;27866;48.146;17.098;2022-12-29T17:24:07;51.58;;;26.67;;
42196;SDS011;27866;48.146;17.098;2022-12-29T17:28:30;51.28;;;26.08;;
42196;SDS011;27866;48.146;17.098;2022-12-29T17:32:43;49.40;;;26.48;;
42196;SDS011;27866;48.146;17.098;2022-12-29T17:37:05;46.92;;;26.20;;
42196;SDS011;27866;48.146;17.098;2022-12-29T17:41:42;49.10;;;26.85;;
42196;SDS011;27866;48.146;17.098;2022-12-29T17:45:56;45.85;;;25.60;;
42196;SDS011;27866;48.146;17.098;2022-12-29T17:50:10;48.00;;;26.20;;
42196;SDS011;27866;48.146;17.098;2022-12-29T17:54:28;46.40;;;27.30;;
42196;SDS011;27866;48.146;17.098;2022-12-29T17:58:40;47.10;;;27.63;;
42196;SDS011;27866;48.146;17.098;2022-12-29T18:02:51;52.10;;;27.52;;
42196;SDS011;27866;48.146;17.098;2022-12-29T18:07:07;51.13;;;27.38;;
42196;SDS011;27866;48.146;17.098;2022-12-29T18:11:24;44.47;;;26.70;;
42196;SDS011;27866;48.146;17.098;2022-12-29T18:15:36;50.90;;;27.42;;
42196;SDS011;27866;48.146;17.098;2022-12-29T18:19:48;46.35;;;26.77;;
42196;SDS011;27866;48.146;17.098;2022-12-29T18:24:01;47.87;;;28.63;;
42196;SDS011;27866;48.146;17.098;2022-12-29T18:28:13;51.10;;;27.35;;
42196;SDS011;27866;48.146;17.098;2022-12-29T18:32:24;56.08;;;27.98;;
42196;SDS011;27866;48.146;17.098;2022-12-29T18:36:35;52.10;;;29.23;;
42196;SDS011;27866;48.146;17.098;2022-12-29T18:40:47;53.47;;;28.27;;
42196;SDS011;27866;48.146;17.098;2022-12-29T18:44:59;56.35;;;29.25;;
42196;SDS011;27866;48.146;17.098;2022-12-29T18:49:10;54.65;;;28.85;;
42196;SDS011;27866;48.146;17.098;2022-12-29T18:53:22;52.05;;;29.77;;
42196;SDS011;27866;48.146;17.098;2022-12-29T18:57:34;56.17;;;29.17;;
42196;SDS011;27866;48.146;17.098;2022-12-29T19:01:46;56.42;;;30.45;;
42196;SDS011;27866;48.146;17.098;2022-12-29T19:05:57;56.60;;;30.38;;
42196;SDS011;27866;48.146;17.098;2022-12-29T19:10:09;54.38;;;29.08;;
42196;SDS011;27866;48.146;17.098;2022-12-29T19:14:21;55.85;;;31.48;;
42196;SDS011;27866;48.146;17.098;2022-12-29T19:18:32;60.17;;;30.73;;
42196;SDS011;27866;48.146;17.098;2022-12-29T19:22:43;57.75;;;29.98;;
42196;SDS011;27866;48.146;17.098;2022-12-29T19:26:54;55.22;;;30.00;;
42196;SDS011;27866;48.146;17.098;2022-12-29T19:31:05;50.28;;;28.92;;
42196;SDS011;27866;48.146;17.098;2022-12-29T19:35:19;53.42;;;29.17;;
42196;SDS011;27866;48.146;17.098;2022-12-29T19:39:32;55.50;;;30.20;;
42196;SDS011;27866;48.146;17.098;2022-12-29T19:43:44;51.45;;;29.42;;
42196;SDS011;27866;48.146;17.098;2022-12-29T19:47:56;56.00;;;29.45;;
42196;SDS011;27866;48.146;17.098;2022-12-29T19:52:07;57.20;;;31.58;;
42196;SDS011;27866;48.146;17.098;2022-12-29T19:56:18;57.85;;;31.83;;
42196;SDS011;27866;48.146;17.098;2022-12-29T20:00:30;54.05;;;31.58;;
42196;SDS011;27866;48.146;17.098;2022-12-29T20:04:41;54.17;;;31.13;;
42196;SDS011;27866;48.146;17.098;2022-12-29T20:08:52;52.53;;;29.17;;
42196;SDS011;27866;48.146;17.098;2022-12-29T20:13:04;54.42;;;30.35;;
42196;SDS011;27866;48.146;17.098;2022-12-29T20:17:16;53.70;;;29.15;;
42196;SDS011;27866;48.146;17.098;2022-12-29T20:21:28;53.15;;;30.63;;
42196;SDS011;27866;48.146;17.098;2022-12-29T20:25:39;59.05;;;32.08;;
42196;SDS011;27866;48.146;17.098;2022-12-29T20:29:52;54.58;;;30.98;;
42196;SDS011;27866;48.146;17.098;2022-12-29T20:34:04;55.72;;;31.15;;
42196;SDS011;27866;48.146;17.098;2022-12-29T20:38:17;58.43;;;34.37;;
42196;SDS011;27866;48.146;17.098;2022-12-29T20:42:28;58.72;;;32.78;;
42196;SDS011;27866;48.146;17.098;2022-12-29T20:46:40;54.08;;;28.52;;
42196;SDS011;27866;48.146;17.098;2022-12-29T20:50:51;51.10;;;28.85;;
42196;SDS011;27866;48.146;17.098;2022-12-29T20:55:02;53.72;;;28.70;;
42196;SDS011;27866;48.146;17.098;2022-12-29T20:59:14;50.10;;;29.02;;
42196;SDS011;27866;48.146;17.098;2022-12-29T21:03:26;49.47;;;27.48;;
42196;SDS011;27866;48.146;17.098;2022-12-29T21:07:37;50.30;;;27.40;;
42196;SDS011;27866;48.146;17.098;2022-12-29T21:11:51;52.55;;;30.35;;
42196;SDS011;27866;48.146;17.098;2022-12-29T21:16:04;55.97;;;30.30;;
42196;SDS011;27866;48.146;17.098;2022-12-29T21:20:18;54.22;;;29.23;;
42196;SDS011;27866;48.146;17.098;2022-12-29T21:24:38;54.95;;;29.67;;
42196;SDS011;27866;48.146;17.098;2022-12-29T21:28:50;57.50;;;29.83;;
42196;SDS011;27866;48.146;17.098;2022-12-29T21:33:01;60.42;;;31.40;;
42196;SDS011;27866;48.146;17.098;2022-12-29T21:37:14;52.83;;;30.17;;
42196;SDS011;27866;48.146;17.098;2022-12-29T21:41:25;53.90;;;29.58;;
42196;SDS011;27866;48.146;17.098;2022-12-29T21:45:36;55.00;;;29.58;;
42196;SDS011;27866;48.146;17.098;2022-12-29T21:49:47;60.13;;;31.35;;
42196;SDS011;27866;48.146;17.098;2022-12-29T21:53:59;58.47;;;31.60;;
42196;SDS011;27866;48.146;17.098;2022-12-29T21:58:30;60.80;;;31.27;;
42196;SDS011;27866;48.146;17.098;2022-12-29T22:03:00;58.72;;;30.05;;
42196;SDS011;27866;48.146;17.098;2022-12-29T22:07:30;51.45;;;29.38;;
42196;SDS011;27866;48.146;17.098;2022-12-29T22:11:59;51.67;;;28.85;;
42196;SDS011;27866;48.146;17.098;2022-12-29T22:16:29;53.88;;;30.65;;
42196;SDS011;27866;48.146;17.098;2022-12-29T22:20:41;58.55;;;29.67;;
42196;SDS011;27866;48.146;17.098;2022-12-29T22:24:52;52.55;;;28.23;;
42196;SDS011;27866;48.146;17.098;2022-12-29T22:29:03;48.88;;;27.08;;
42196;SDS011;27866;48.146;17.098;2022-12-29T22:33:14;46.13;;;26.67;;
42196;SDS011;27866;48.146;17.098;2022-12-29T22:37:26;48.75;;;27.92;;
42196;SDS011;27866;48.146;17.098;2022-12-29T22:41:37;50.08;;;29.50;;
42196;SDS011;27866;48.146;17.098;2022-12-29T22:45:49;54.13;;;29.17;;
42196;SDS011;27866;48.146;17.098;2022-12-29T22:50:00;57.80;;;30.25;;
42196;SDS011;27866;48.146;17.098;2022-12-29T22:54:12;57.70;;;30.38;;
42196;SDS011;27866;48.146;17.098;2022-12-29T22:58:23;61.28;;;30.98;;
42196;SDS011;27866;48.146;17.098;2022-12-29T23:02:35;64.43;;;31.13;;
42196;SDS011;27866;48.146;17.098;2022-12-29T23:06:46;53.53;;;28.27;;
42196;SDS011;27866;48.146;17.098;2022-12-29T23:10:57;55.47;;;29.35;;
42196;SDS011;27866;48.146;17.098;2022-12-29T23:15:08;54.97;;;29.42;;
42196;SDS011;27866;48.146;17.098;2022-12-29T23:19:20;59.15;;;31.63;;
42196;SDS011;27866;48.146;17.098;2022-12-29T23:23:31;50.22;;;28.00;;
42196;SDS011;27866;48.146;17.098;2022-12-29T23:28:02;50.95;;;29.50;;
42196;SDS011;27866;48.146;17.098;2022-12-29T23:32:14;51.22;;;29.33;;
42196;SDS011;27866;48.146;17.098;2022-12-29T23:36:26;59.10;;;32.45;;
42196;SDS011;27866;48.146;17.098;2022-12-29T23:40:39;54.33;;;30.75;;
42196;SDS011;27866;48.146;17.098;2022-12-29T23:44:50;57.53;;;30.20;;
42196;SDS011;27866;48.146;17.098;2022-12-29T23:49:01;62.45;;;31.77;;
42196;SDS011;27866;48.146;17.098;2022-12-29T23:53:12;52.22;;;28.95;;
42196;SDS011;27866;48.146;17.098;2022-12-29T23:57:23;53.25;;;29.80;;
